Time;durP1;ratioP1;P1;durP2;ratioP2;P2;SDS_P1;SDS_P2;PMS_P1;PMS_P2;Temp;Humidity;BMP_temperature;BMP_pressure;BME280_temperature;BME280_humidity;BME280_pressure;Samples;Min_cycle;Max_cycle;Signal;HPM_P1;HPM_P2
2021/12/23 00:01:17;;;;;;;31.35;24.05;;;;;;;4.67;73.32;102133.56;4951037;28;20491;-84
2021/12/23 00:03:44;;;;;;;27.58;22.33;;;;;;;5.06;73.08;102214.47;4951200;28;20209;-89
2021/12/23 00:06:11;;;;;;;35.13;21.85;;;;;;;4.32;73.60;102095.47;4968674;28;20058;-82
2021/12/23 00:08:38;;;;;;;31.48;23.70;;;;;;;3.54;73.55;101979.31;4968490;28;20074;-84
2021/12/23 00:11:04;;;;;;;31.03;22.87;;;;;;;4.05;74.13;102075.47;4951309;28;20074;-87
2021/12/23 00:13:35;;;;;;;30.93;23.80;;;;;;;3.77;73.93;102038.00;4968237;28;20050;-84
2021/12/23 00:16:05;;;;;;;30.23;23.73;;;;;;;3.33;74.22;101969.63;4951032;28;20078;-85
2021/12/23 00:24:00;;;;;;;31.37;23.63;;;;;;;3.48;74.71;101978.69;4968506;28;20057;-83
2021/12/23 00:26:28;;;;;;;33.97;25.00;;;;;;;4.26;74.65;102115.00;4952129;28;20051;-85
2021/12/23 00:28:55;;;;;;;31.63;23.53;;;;;;;4.32;74.61;102129.66;4952308;28;20046;-83
2021/12/23 00:31:21;;;;;;;36.37;25.30;;;;;;;4.47;75.02;102150.97;4954013;28;20102;-85
2021/12/23 00:33:48;;;;;;;34.67;25.48;;;;;;;5.10;74.77;102260.81;4982655;28;20042;-89
2021/12/23 00:36:15;;;;;;;36.25;27.05;;;;;;;4.46;74.55;102133.47;4988436;28;20074;-88
2021/12/23 00:38:55;;;;;;;34.23;24.93;;;;;;;4.96;74.45;102227.13;4970982;28;20054;-87
2021/12/23 00:41:23;;;;;;;36.40;26.35;;;;;;;3.92;74.77;102058.44;4970751;28;20069;-85
2021/12/23 00:43:52;;;;;;;32.27;25.60;;;;;;;3.58;74.93;102001.91;4958258;28;20299;-85
2021/12/23 00:46:23;;;;;;;38.33;26.37;;;;;;;3.76;74.63;102033.66;4968951;28;20482;-85
2021/12/23 00:48:50;;;;;;;35.55;25.90;;;;;;;3.25;74.93;101950.66;4951465;28;20110;-83
2021/12/23 00:51:19;;;;;;;34.93;25.97;;;;;;;4.19;75.02;102097.72;4968461;28;20585;-87
2021/12/23 00:53:49;;;;;;;35.40;26.77;;;;;;;4.28;74.78;102121.03;4951257;28;20578;-87
2021/12/23 00:56:16;;;;;;;36.17;27.90;;;;;;;3.80;75.07;102049.25;4968883;28;20058;-87
2021/12/23 00:58:43;;;;;;;34.33;26.00;;;;;;;3.21;74.90;101958.66;4971365;28;20090;-84
2021/12/23 01:01:10;;;;;;;32.93;25.10;;;;;;;3.13;75.02;101934.47;4954213;28;20110;-85
2021/12/23 01:03:37;;;;;;;34.27;25.80;;;;;;;4.82;75.55;102208.38;4971329;28;20494;-84
2021/12/23 01:06:05;;;;;;;36.83;27.27;;;;;;;3.52;74.89;101991.66;4953977;28;20495;-85
2021/12/23 01:08:31;;;;;;;35.33;28.43;;;;;;;4.43;74.77;102149.38;4970965;28;20093;-85
2021/12/23 01:11:00;;;;;;;34.22;26.90;;;;;;;4.28;75.06;102118.41;4971008;28;20065;-86
2021/12/23 01:13:30;;;;;;;35.00;26.80;;;;;;;4.89;75.00;102209.88;4954128;28;20458;-86
2021/12/23 01:16:14;;;;;;;34.30;26.40;;;;;;;3.17;74.88;101928.19;4954137;28;20053;-87
2021/12/23 01:18:44;;;;;;;33.60;25.75;;;;;;;5.03;74.94;102220.72;4971318;28;20055;-85
2021/12/23 01:21:18;;;;;;;38.80;27.60;;;;;;;5.14;74.74;102249.22;4955241;28;20047;-85
2021/12/23 01:23:53;;;;;;;34.03;26.70;;;;;;;4.62;74.36;102159.19;4972853;28;20070;-87
2021/12/23 01:26:22;;;;;;;35.22;27.17;;;;;;;4.99;74.56;102218.25;4970958;28;20759;-85
2021/12/23 01:28:54;;;;;;;39.22;27.92;;;;;;;4.73;74.77;102180.66;4953523;28;20518;-86
2021/12/23 01:31:24;;;;;;;32.03;26.05;;;;;;;4.94;74.62;102210.53;4953869;28;20578;-85
2021/12/23 01:33:51;;;;;;;35.17;27.02;;;;;;;4.52;74.55;102136.81;4953691;28;20477;-86
2021/12/23 01:36:18;;;;;;;34.80;25.40;;;;;;;4.99;74.58;102226.16;4953257;28;20058;-84
2021/12/23 01:38:44;;;;;;;36.70;24.85;;;;;;;5.08;74.84;102236.31;4953104;28;20121;-86
2021/12/23 01:41:11;;;;;;;29.55;23.38;;;;;;;4.93;74.71;102217.59;4953542;28;20137;-85
2021/12/23 01:43:38;;;;;;;32.33;25.10;;;;;;;4.70;74.61;102183.41;4953668;28;20064;-86
2021/12/23 01:46:04;;;;;;;32.72;24.92;;;;;;;4.79;74.87;102201.47;4953474;28;20055;-87
2021/12/23 01:48:32;;;;;;;35.13;24.27;;;;;;;4.83;74.62;102210.09;4970363;28;20053;-84
2021/12/23 01:50:59;;;;;;;29.60;22.60;;;;;;;4.35;75.01;102140.94;4953178;28;20590;-87
2021/12/23 01:53:25;;;;;;;30.33;23.63;;;;;;;4.42;75.34;102142.41;4953387;28;20145;-83
2021/12/23 01:55:52;;;;;;;34.63;24.80;;;;;;;4.92;75.31;102225.53;4952954;28;20046;-85
2021/12/23 01:58:20;;;;;;;35.83;25.53;;;;;;;4.70;74.90;102193.94;4953183;28;20120;-86
2021/12/23 02:00:50;;;;;;;32.37;25.00;;;;;;;3.73;75.08;102041.66;4970092;28;20323;-84
2021/12/23 02:03:19;;;;;;;35.00;24.70;;;;;;;3.96;75.49;102085.47;4936794;29;20113;-84
2021/12/23 02:05:47;;;;;;;29.77;23.97;;;;;;;3.08;75.14;101943.41;4950586;29;20444;-85
2021/12/23 02:08:32;;;;;;;32.37;23.40;;;;;;;4.03;75.35;102086.97;4935827;29;20078;-84
2021/12/23 02:11:02;;;;;;;34.73;25.27;;;;;;;2.91;75.48;101896.78;4934099;29;20059;-84
2021/12/23 02:13:30;;;;;;;31.53;24.00;;;;;;;3.52;75.59;102001.28;4950662;29;20055;-83
2021/12/23 02:15:57;;;;;;;31.67;25.30;;;;;;;3.76;75.81;102046.78;4933608;29;20154;-85
2021/12/23 02:18:24;;;;;;;30.07;24.87;;;;;;;4.01;76.27;102079.13;4933440;29;20083;-85
2021/12/23 02:20:53;;;;;;;34.33;27.53;;;;;;;4.10;76.05;102087.56;4933483;29;20106;-85
2021/12/23 02:23:20;;;;;;;30.13;23.63;;;;;;;4.51;75.92;102167.47;4933705;29;20059;-84
2021/12/23 02:25:47;;;;;;;30.57;25.57;;;;;;;3.19;75.54;101931.59;4933506;29;20055;-85
2021/12/23 02:28:19;;;;;;;33.50;25.47;;;;;;;3.94;75.74;102040.84;4933361;29;20086;-85
2021/12/23 02:30:51;;;;;;;37.22;26.88;;;;;;;3.66;75.49;101988.50;4950538;29;20062;-85
2021/12/23 02:33:23;;;;;;;38.40;27.60;;;;;;;4.64;75.83;102158.22;4933207;29;20131;-84
2021/12/23 02:35:51;;;;;;;;;;;;;;;4.79;76.08;102182.22;4933596;29;20062;-85
2021/12/23 02:38:21;;;;;;;36.97;27.30;;;;;;;2.91;75.88;101873.19;4952188;28;20001;-83
2021/12/23 02:40:48;;;;;;;37.97;28.83;;;;;;;4.68;75.97;102164.19;4933052;29;20125;-88
2021/12/23 02:43:30;;;;;;;38.83;28.63;;;;;;;4.66;75.68;102156.38;4933784;29;20115;-82
2021/12/23 02:46:01;;;;;;;36.13;27.88;;;;;;;4.13;76.23;102056.78;4951806;29;20071;-83
2021/12/23 02:48:33;;;;;;;36.00;27.20;;;;;;;4.79;75.80;102169.91;4933267;29;20634;-88
2021/12/23 02:51:04;;;;;;;37.85;29.52;;;;;;;4.67;76.27;102146.72;4933725;29;20051;-86
2021/12/23 02:53:30;;;;;;;36.47;27.97;;;;;;;4.77;75.73;102158.56;4932943;29;20051;-88
2021/12/23 02:55:58;;;;;;;37.97;27.47;;;;;;;4.22;75.73;102063.44;4950187;29;20047;-86
2021/12/23 02:58:25;;;;;;;32.17;25.90;;;;;;;4.46;75.80;102104.53;4932771;29;20055;-87
2021/12/23 03:00:55;;;;;;;36.93;27.90;;;;;;;4.33;75.74;102077.03;4932959;29;20127;-84
2021/12/23 03:03:22;;;;;;;35.27;26.63;;;;;;;4.26;75.62;102067.66;4933086;29;20058;-84
2021/12/23 03:05:54;;;;;;;37.67;27.03;;;;;;;4.64;75.54;102128.44;4932582;29;20051;-84
2021/12/23 03:08:31;;;;;;;37.53;27.52;;;;;;;4.17;75.81;102047.84;4949587;29;20078;-86
2021/12/23 03:10:58;;;;;;;34.85;26.10;;;;;;;4.18;75.24;102046.09;4932724;29;20138;-85
2021/12/23 03:13:26;;;;;;;36.80;27.80;;;;;;;4.27;75.44;102074.63;4932595;29;20483;-84
2021/12/23 03:15:53;;;;;;;38.78;26.77;;;;;;;4.71;75.99;102143.06;4932309;29;20538;-86
2021/12/23 03:18:20;;;;;;;35.83;26.73;;;;;;;4.52;75.89;102113.13;4932313;28;20542;-85
2021/12/23 03:20:47;;;;;;;35.40;27.20;;;;;;;4.51;76.06;102104.34;4931903;29;20055;-84
2021/12/23 03:23:13;;;;;;;38.67;27.30;;;;;;;4.45;75.98;102104.63;4933838;29;20488;-84
2021/12/23 03:25:40;;;;;;;35.22;26.58;;;;;;;4.34;76.10;102083.13;4967871;29;20102;-90
2021/12/23 03:28:07;;;;;;;36.40;27.43;;;;;;;4.66;75.99;102135.34;4956772;29;20066;-91
2021/12/23 03:30:33;;;;;;;34.00;26.47;;;;;;;3.83;75.54;101995.72;4957237;29;20093;-90
2021/12/23 03:33:00;;;;;;;36.70;25.97;;;;;;;4.61;75.87;102139.03;4955541;29;20694;-85
2021/12/23 03:35:27;;;;;;;40.07;25.87;;;;;;;4.44;75.85;102101.13;4932547;29;20566;-86
2021/12/23 03:37:54;;;;;;;39.20;28.23;;;;;;;4.69;75.98;102148.38;4932671;29;20158;-86
2021/12/23 03:40:22;;;;;;;35.50;25.37;;;;;;;3.39;75.65;101938.72;4932247;29;20095;-85
2021/12/23 03:42:49;;;;;;;34.40;26.10;;;;;;;3.68;76.34;101996.31;4948838;29;20499;-90
2021/12/23 03:45:16;;;;;;;34.93;26.40;;;;;;;4.47;76.38;102134.34;4949689;29;20044;-87
2021/12/23 03:47:45;;;;;;;34.37;27.27;;;;;;;2.84;76.08;101850.69;4932156;29;20087;-83
2021/12/23 03:50:11;;;;;;;31.97;26.37;;;;;;;3.38;76.85;101941.44;4949286;29;20500;-84
2021/12/23 03:52:38;;;;;;;35.83;27.35;;;;;;;3.91;76.65;102030.47;4949307;29;20080;-85
2021/12/23 03:55:05;;;;;;;33.93;27.27;;;;;;;4.42;76.71;102115.25;4932234;29;20058;-85
2021/12/23 03:57:33;;;;;;;36.67;27.90;;;;;;;4.24;76.20;102075.59;4931713;29;20051;-84
2021/12/23 04:00:00;;;;;;;39.30;29.30;;;;;;;3.82;76.42;102015.06;4932386;29;20062;-86
2021/12/23 04:02:27;;;;;;;41.63;30.83;;;;;;;3.91;76.06;102032.22;4932670;28;20479;-84
2021/12/23 04:04:54;;;;;;;43.87;30.23;;;;;;;3.89;76.45;102037.56;4949535;29;20051;-85
2021/12/23 04:07:21;;;;;;;40.77;31.20;;;;;;;4.34;76.39;102112.06;4949289;29;20062;-85
2021/12/23 04:09:47;;;;;;;42.43;31.77;;;;;;;4.45;76.72;102141.44;4932090;29;20082;-84
2021/12/23 04:12:14;;;;;;;36.77;28.00;;;;;;;4.03;76.88;102079.94;4949231;29;20467;-83
2021/12/23 04:14:40;;;;;;;43.70;30.90;;;;;;;4.15;77.43;102111.91;4932460;29;20051;-85
2021/12/23 04:17:07;;;;;;;40.33;28.63;;;;;;;4.30;77.27;102142.88;4931952;29;20083;-83
2021/12/23 04:19:34;;;;;;;39.23;28.50;;;;;;;4.01;77.61;102100.16;4948799;29;20510;-84
2021/12/23 04:22:01;;;;;;;38.30;28.60;;;;;;;4.06;77.81;102108.72;4932064;29;20146;-84
2021/12/23 04:24:27;;;;;;;36.87;28.70;;;;;;;4.17;77.27;102131.09;4931909;29;20051;-80
2021/12/23 04:26:54;;;;;;;31.80;26.30;;;;;;;3.84;77.70;102085.00;4949123;29;20058;-83
2021/12/23 04:29:21;;;;;;;35.23;26.30;;;;;;;3.36;77.67;102008.88;4931888;29;20089;-83
2021/12/23 04:31:49;;;;;;;35.03;25.60;;;;;;;3.76;77.26;102083.56;4933861;29;20051;-83
2021/12/23 04:34:16;;;;;;;27.93;23.57;;;;;;;3.70;77.72;102070.66;4952920;29;20490;-85
2021/12/23 04:36:42;;;;;;;29.80;24.27;;;;;;;3.76;78.03;102086.19;4952626;29;20047;-85
2021/12/23 04:39:09;;;;;;;33.67;24.80;;;;;;;3.98;77.78;102126.56;4935945;29;20386;-84
2021/12/23 04:41:38;;;;;;;27.30;23.70;;;;;;;4.01;77.39;102131.69;4935568;29;20047;-87
2021/12/23 04:44:06;;;;;;;26.00;23.03;;;;;;;4.04;77.65;102135.97;4935637;29;20059;-87
2021/12/23 04:46:32;;;;;;;28.47;23.23;;;;;;;3.67;77.61;102084.78;4935667;29;20047;-85
2021/12/23 04:48:59;;;;;;;26.97;22.70;;;;;;;2.85;77.75;101936.38;4935957;29;20506;-84
2021/12/23 04:51:26;;;;;;;25.73;22.27;;;;;;;3.41;77.93;102038.44;4935953;29;20051;-85
2021/12/23 04:53:52;;;;;;;29.67;22.03;;;;;;;3.50;77.58;102061.75;4936066;29;20078;-86
2021/12/23 04:56:19;;;;;;;24.73;22.13;;;;;;;3.73;78.13;102099.44;4935538;29;20682;-83
2021/12/23 04:58:46;;;;;;;25.80;22.20;;;;;;;3.86;77.94;102129.63;4935308;29;20043;-84
2021/12/23 05:01:21;;;;;;;28.33;23.43;;;;;;;3.58;78.35;102075.44;4935483;29;20055;-84
2021/12/23 05:03:48;;;;;;;27.13;21.90;;;;;;;3.49;78.18;102060.03;4954222;28;20055;-88
2021/12/23 05:06:16;;;;;;;23.90;21.30;;;;;;;3.70;78.11;102099.56;4954170;28;20199;-86
2021/12/23 05:08:43;;;;;;;24.70;22.00;;;;;;;3.80;78.03;102107.03;4953899;28;20047;-86
2021/12/23 05:11:10;;;;;;;23.87;21.20;;;;;;;3.39;78.26;102037.63;4971149;28;20059;-85
2021/12/23 05:13:37;;;;;;;24.03;20.30;;;;;;;3.63;77.47;102076.13;4953140;28;20141;-87
2021/12/23 05:16:04;;;;;;;24.37;21.87;;;;;;;3.79;77.54;102104.50;4962463;28;20557;-83
2021/12/23 05:18:31;;;;;;;22.70;20.20;;;;;;;3.43;77.73;102044.50;4970095;28;20058;-84
2021/12/23 05:20:57;;;;;;;22.10;19.53;;;;;;;3.83;77.64;102124.47;4969965;28;20495;-84
2021/12/23 05:23:27;;;;;;;22.00;19.43;;;;;;;3.74;77.47;102124.78;4970111;28;20065;-83
2021/12/23 05:25:53;;;;;;;22.03;19.53;;;;;;;2.49;77.98;101913.13;4952622;28;20050;-87
2021/12/23 05:28:20;;;;;;;22.10;19.83;;;;;;;3.46;78.49;102072.41;4952434;28;20046;-85
2021/12/23 05:30:46;;;;;;;25.30;20.57;;;;;;;3.71;78.68;102111.78;4969585;28;20057;-86
2021/12/23 05:33:13;;;;;;;23.67;21.17;;;;;;;3.31;78.08;102051.03;4953103;28;20066;-84
2021/12/23 05:35:40;;;;;;;22.47;19.23;;;;;;;3.06;78.11;102016.06;4953364;28;20298;-83
2021/12/23 05:38:09;;;;;;;28.80;21.70;;;;;;;2.58;78.04;101933.78;4955173;28;20054;-87
2021/12/23 05:40:36;;;;;;;22.87;20.47;;;;;;;3.00;78.51;102004.88;4952427;28;20305;-88
2021/12/23 05:43:03;;;;;;;23.93;20.13;;;;;;;3.47;78.45;102077.63;4952331;28;20513;-83
2021/12/23 05:45:30;;;;;;;21.20;19.00;;;;;;;3.42;78.07;102064.66;4952400;28;20149;-84
2021/12/23 05:47:57;;;;;;;23.20;20.10;;;;;;;3.66;77.80;102098.81;4969348;28;20055;-85
2021/12/23 05:50:24;;;;;;;23.20;20.70;;;;;;;3.64;78.39;102088.38;4952180;28;20043;-85
2021/12/23 05:52:52;;;;;;;23.00;19.30;;;;;;;2.58;78.42;101907.56;4952207;28;20458;-84
2021/12/23 05:55:19;;;;;;;23.70;20.33;;;;;;;2.80;78.30;101962.75;4969554;28;20051;-84
2021/12/23 05:57:46;;;;;;;21.90;19.60;;;;;;;2.43;78.37;101879.25;4969501;28;20146;-85
2021/12/23 06:00:15;;;;;;;22.07;19.77;;;;;;;3.88;78.31;102116.41;4952689;28;20070;-87
2021/12/23 06:02:42;;;;;;;24.37;21.03;;;;;;;2.39;78.04;101872.41;4941055;29;20133;-83
2021/12/23 06:05:09;;;;;;;22.67;20.27;;;;;;;2.12;78.24;101830.53;4933140;29;20055;-86
2021/12/23 06:07:36;;;;;;;21.90;19.67;;;;;;;3.83;78.32;102106.06;4933357;29;20094;-87
2021/12/23 06:10:04;;;;;;;23.97;20.93;;;;;;;1.96;78.04;101792.66;4932940;29;20054;-84
2021/12/23 06:12:30;;;;;;;24.43;20.20;;;;;;;1.76;78.13;101757.53;4950157;29;20478;-86
2021/12/23 06:14:57;;;;;;;22.30;20.00;;;;;;;1.95;77.88;101783.94;4932512;29;20059;-82
2021/12/23 06:17:24;;;;;;;24.63;20.87;;;;;;;1.79;78.19;101749.56;4932778;29;20672;-84
2021/12/23 06:19:50;;;;;;;23.40;20.27;;;;;;;3.14;78.17;101970.28;4932263;29;20308;-86
2021/12/23 06:22:18;;;;;;;24.97;21.60;;;;;;;3.16;78.43;101973.72;4949688;29;20047;-83
2021/12/23 06:24:47;;;;;;;23.73;20.53;;;;;;;3.17;78.15;101967.53;4932509;29;20149;-85
2021/12/23 06:27:16;;;;;;;23.73;21.23;;;;;;;3.35;77.97;102009.78;4949362;29;20125;-83
2021/12/23 06:29:43;;;;;;;26.37;21.63;;;;;;;3.35;78.25;102012.41;4932737;29;20061;-84
2021/12/23 06:32:11;;;;;;;24.27;20.83;;;;;;;3.89;78.86;102108.50;4933733;29;20113;-86
2021/12/23 06:34:38;;;;;;;23.90;21.07;;;;;;;3.53;78.40;102043.25;4940801;29;20280;-89
2021/12/23 06:37:05;;;;;;;27.53;22.80;;;;;;;2.00;78.80;101775.94;4957069;28;20130;-89
2021/12/23 06:39:33;;;;;;;25.87;21.93;;;;;;;3.85;78.64;102080.59;4944935;29;20368;-85
2021/12/23 06:42:00;;;;;;;25.20;22.50;;;;;;;4.01;78.42;102105.41;4913733;29;20067;-83
2021/12/23 06:44:27;;;;;;;24.67;22.07;;;;;;;4.04;78.08;102110.53;4913868;29;20499;-83
2021/12/23 06:46:54;;;;;;;25.47;21.70;;;;;;;2.59;78.05;101867.31;4930612;29;20079;-83
2021/12/23 06:49:20;;;;;;;24.63;21.97;;;;;;;3.90;78.32;102083.91;4930009;29;20240;-87
2021/12/23 06:51:47;;;;;;;30.20;23.10;;;;;;;2.85;78.72;101899.66;4930215;29;20428;-83
2021/12/23 06:54:16;;;;;;;24.97;21.40;;;;;;;4.06;78.33;102100.81;4917757;29;20045;-83
2021/12/23 06:56:46;;;;;;;28.53;21.73;;;;;;;2.48;78.19;101822.31;4948137;29;20098;-86
2021/12/23 06:59:15;;;;;;;24.80;22.07;;;;;;;4.04;78.51;102083.41;4948610;29;20150;-86
2021/12/23 07:01:47;;;;;;;28.20;23.33;;;;;;;3.82;78.31;102031.66;4951190;28;20062;-83
2021/12/23 07:04:16;;;;;;;27.65;22.38;;;;;;;3.92;78.23;102053.19;4967641;28;20054;-84
2021/12/23 07:06:58;;;;;;;24.87;22.13;;;;;;;4.13;78.17;102084.84;4968246;28;20058;-84
2021/12/23 07:09:25;;;;;;;24.27;21.70;;;;;;;3.56;78.25;101987.13;4966491;28;20142;-84
2021/12/23 07:11:51;;;;;;;24.27;21.70;;;;;;;3.96;78.07;102044.28;4968060;28;20051;-83
2021/12/23 07:14:18;;;;;;;24.03;21.43;;;;;;;3.37;77.74;101940.59;4968728;28;20051;-84
2021/12/23 07:16:44;;;;;;;26.87;22.27;;;;;;;3.87;77.91;102007.00;4968108;28;20442;-85
2021/12/23 07:19:11;;;;;;;25.93;23.10;;;;;;;4.34;77.72;102089.25;4961359;28;20083;-87
2021/12/23 07:21:38;;;;;;;23.63;21.13;;;;;;;4.34;77.68;102076.09;4948643;28;20082;-82
2021/12/23 07:24:05;;;;;;;24.47;21.27;;;;;;;3.58;77.72;101943.28;4950589;28;20146;-87
2021/12/23 07:26:32;;;;;;;30.50;22.43;;;;;;;4.16;77.80;102040.03;4942698;29;20513;-86
2021/12/23 07:28:59;;;;;;;24.63;21.97;;;;;;;4.06;77.71;102021.97;4948655;29;20047;-85
2021/12/23 07:31:25;;;;;;;25.17;22.47;;;;;;;4.37;77.99;102073.38;4948530;28;20047;-87
2021/12/23 07:33:52;;;;;;;25.60;22.20;;;;;;;4.32;77.61;102056.91;4966733;28;20386;-87
2021/12/23 07:36:22;;;;;;;27.90;23.77;;;;;;;4.25;78.08;102023.91;4948959;28;20059;-87
2021/12/23 07:38:49;;;;;;;26.70;23.07;;;;;;;4.44;77.60;102061.69;4961080;28;20061;-84
2021/12/23 07:41:16;;;;;;;26.70;23.80;;;;;;;4.22;77.30;102019.63;4962564;28;20111;-86
2021/12/23 07:43:55;;;;;;;25.83;22.60;;;;;;;4.33;77.73;102037.59;4949022;29;20146;-82
2021/12/23 07:46:23;;;;;;;24.15;21.55;;;;;;;4.39;76.91;102052.25;4965744;28;20138;-82
2021/12/23 07:48:50;;;;;;;26.73;23.90;;;;;;;4.49;77.25;102066.75;4930866;29;20526;-81
2021/12/23 07:51:17;;;;;;;31.10;24.00;;;;;;;4.48;76.85;102065.03;4964098;28;20407;-84
2021/12/23 07:53:46;;;;;;;25.53;22.70;;;;;;;4.24;76.80;102009.03;4950589;29;20555;-83
2021/12/23 07:56:13;;;;;;;28.63;22.23;;;;;;;4.45;77.08;102037.09;4949638;29;20146;-86
2021/12/23 07:58:40;;;;;;;26.20;23.23;;;;;;;4.68;77.05;102062.47;4932740;29;20444;-85
2021/12/23 08:01:06;;;;;;;25.30;22.30;;;;;;;4.55;76.93;102042.00;4932449;29;20082;-85
2021/12/23 08:03:33;;;;;;;25.50;22.77;;;;;;;4.71;77.10;102066.75;4930338;29;20415;-84
2021/12/23 08:06:00;;;;;;;23.63;21.10;;;;;;;3.19;76.99;101804.78;4945835;28;20083;-83
2021/12/23 08:08:27;;;;;;;27.55;22.67;;;;;;;4.12;76.56;101976.19;4933100;29;20062;-86
2021/12/23 08:10:56;;;;;;;27.80;22.48;;;;;;;4.81;76.94;102081.25;4933831;29;20099;-84
2021/12/23 08:13:23;;;;;;;28.10;23.42;;;;;;;4.38;76.54;102004.06;4916441;29;20056;-86
2021/12/23 08:15:50;;;;;;;26.23;23.13;;;;;;;4.16;76.63;101961.19;4933877;29;20063;-84
2021/12/23 08:18:16;;;;;;;27.00;23.45;;;;;;;4.72;76.97;102057.94;4918013;28;20134;-85
2021/12/23 08:20:43;;;;;;;25.37;22.70;;;;;;;4.52;76.57;102026.34;4950809;29;20449;-84
2021/12/23 08:23:10;;;;;;;26.37;23.60;;;;;;;4.76;77.07;102056.91;4951669;29;20162;-81
2021/12/23 08:25:37;;;;;;;30.60;22.90;;;;;;;4.44;76.92;102001.22;4951164;29;20044;-86
2021/12/23 08:28:04;;;;;;;32.87;22.73;;;;;;;4.65;76.87;102028.38;4936666;29;20076;-84
2021/12/23 08:30:40;;;;;;;27.87;24.27;;;;;;;4.64;76.87;102021.44;4956120;29;20058;-83
2021/12/23 08:33:08;;;;;;;28.80;23.88;;;;;;;4.42;76.46;101996.94;4937372;29;20418;-85
2021/12/23 08:35:35;;;;;;;28.87;24.47;;;;;;;4.65;76.74;102030.16;4955433;29;20094;-86
2021/12/23 08:38:04;;;;;;;28.63;23.33;;;;;;;4.77;76.44;102036.69;4954194;29;20051;-85
2021/12/23 08:40:31;;;;;;;27.93;23.43;;;;;;;4.74;76.48;102031.56;4938409;29;20477;-84
2021/12/23 08:42:58;;;;;;;31.65;24.35;;;;;;;3.93;76.26;101886.75;4952344;29;20059;-83
2021/12/23 08:45:27;;;;;;;25.40;22.70;;;;;;;4.89;76.50;102046.72;4952258;29;20082;-83
2021/12/23 08:47:56;;;;;;;26.30;23.15;;;;;;;3.03;76.19;101733.66;4952211;29;20102;-86
2021/12/23 08:50:30;;;;;;;30.40;24.83;;;;;;;4.81;76.46;102033.03;4951740;29;20138;-84
2021/12/23 08:52:58;;;;;;;29.00;23.92;;;;;;;4.33;75.98;101935.06;4952357;29;20058;-86
2021/12/23 08:55:27;;;;;;;30.23;24.83;;;;;;;4.84;75.80;102007.44;4952191;29;20393;-85
2021/12/23 08:57:56;;;;;;;31.60;24.67;;;;;;;4.97;76.23;102013.00;4952709;29;20141;-83
2021/12/23 09:00:23;;;;;;;29.48;24.40;;;;;;;3.59;75.85;101777.81;4951837;29;20457;-88
2021/12/23 09:02:50;;;;;;;27.35;23.67;;;;;;;4.44;75.93;101911.81;4964464;28;20388;-84
2021/12/23 09:05:19;;;;;;;28.92;24.85;;;;;;;5.14;75.67;102004.38;4973394;28;20046;-84
2021/12/23 09:07:48;;;;;;;32.63;26.00;;;;;;;3.58;75.28;101755.06;4972015;28;20047;-84
2021/12/23 09:10:14;;;;;;;26.77;23.65;;;;;;;5.39;75.06;102032.28;4971804;28;20055;-85
2021/12/23 09:12:44;;;;;;;30.70;24.23;;;;;;;4.68;74.71;101917.78;4972038;28;20106;-85
2021/12/23 09:15:12;;;;;;;29.83;24.50;;;;;;;4.98;74.70;101950.72;4976107;28;20134;-84
2021/12/23 09:17:39;;;;;;;27.45;23.55;;;;;;;4.47;75.27;101869.59;4979559;28;20373;-85
2021/12/23 09:20:10;;;;;;;27.65;23.08;;;;;;;5.40;74.26;102011.16;4978249;28;20601;-84
2021/12/23 09:22:38;;;;;;;29.33;23.98;;;;;;;4.59;74.43;101847.16;4977632;28;20063;-89
2021/12/23 09:25:11;;;;;;;27.08;24.17;;;;;;;5.60;74.46;102002.34;4976879;28;20109;-89
2021/12/23 09:33:10;;;;;;;29.08;24.10;;;;;;;4.74;73.07;101806.16;4951807;29;20048;-85
2021/12/23 09:35:51;;;;;;;;;;;;;;;5.94;73.40;102016.63;4952584;29;20069;-85
2021/12/23 09:38:27;;;;;;;26.20;23.13;;;;;;;6.07;72.71;102023.03;4953035;28;19976;-82
2021/12/23 09:41:01;;;;;;;29.23;23.55;;;;;;;4.93;72.89;101830.72;4952319;29;20051;-84
2021/12/23 09:43:31;;;;;;;27.48;22.90;;;;;;;5.21;72.79;101875.97;4953563;29;20550;-84
2021/12/23 09:45:58;;;;;;;31.15;22.42;;;;;;;5.22;72.91;101891.72;4942942;29;20043;-87
2021/12/23 09:48:29;;;;;;;29.38;22.60;;;;;;;5.03;73.12;101854.00;4952316;29;20078;-88
2021/12/23 09:51:00;;;;;;;29.95;23.80;;;;;;;4.98;73.19;101845.47;4976186;28;20039;-90
2021/12/23 09:53:29;;;;;;;30.05;23.15;;;;;;;6.00;73.11;102018.97;4959921;28;20067;-88
2021/12/23 09:55:57;;;;;;;29.30;23.23;;;;;;;4.33;73.69;101744.91;4957959;28;20075;-88
2021/12/23 09:58:25;;;;;;;27.73;22.85;;;;;;;4.65;73.85;101799.53;4939114;29;20074;-87
2021/12/23 10:00:52;;;;;;;27.48;22.98;;;;;;;4.74;73.55;101815.84;4934619;29;20047;-86
2021/12/23 10:03:21;;;;;;;28.08;23.30;;;;;;;4.80;73.59;101826.06;4950074;28;20318;-84
2021/12/23 10:05:49;;;;;;;27.05;22.45;;;;;;;5.29;73.56;101890.50;4952907;28;20117;-83
2021/12/23 10:08:16;;;;;;;27.48;21.50;;;;;;;4.46;73.61;101762.69;4970809;28;20117;-83
2021/12/23 10:10:55;;;;;;;27.25;23.17;;;;;;;4.54;73.79;101777.25;4954621;28;20058;-84
2021/12/23 10:33:10;;;;;;;29.33;23.65;;;;;;;5.75;74.33;102009.56;4969878;28;20050;-85
2021/12/23 10:38:31;;;;;;;29.17;23.70;;;;;;;5.66;74.90;101988.03;4970080;28;20143;-88
2021/12/23 10:41:02;;;;;;;37.22;23.20;;;;;;;5.58;74.83;101977.84;4952257;28;20061;-83
2021/12/23 10:43:52;;;;;;;27.52;24.17;;;;;;;5.75;74.88;102006.91;4952912;28;20060;-86
2021/12/23 10:46:28;;;;;;;30.38;24.25;;;;;;;5.79;75.05;102002.34;4969768;28;20059;-85
2021/12/23 10:49:30;;;;;;;28.38;23.58;;;;;;;5.74;75.23;102002.56;4951823;28;20086;-86
2021/12/23 10:52:08;;;;;;;28.60;22.75;;;;;;;5.50;74.72;101965.03;4931770;29;20047;-85
2021/12/23 10:58:01;;;;;;;29.02;24.05;;;;;;;4.52;75.47;101806.28;4932631;29;20572;-87
2021/12/23 10:58:07;;;;;;;28.25;22.65;;;;;;;4.98;74.83;101871.78;4968040;28;20046;-83
2021/12/23 11:00:45;;;;;;;28.17;23.23;;;;;;;5.71;75.41;101980.78;4966631;28;20058;-84
2021/12/23 11:03:43;;;;;;;35.05;26.80;;;;;;;5.79;75.21;101995.28;4952445;28;20063;-85
2021/12/23 11:06:14;;;;;;;33.58;27.23;;;;;;;5.74;75.16;102001.72;4966929;28;20118;-85
2021/12/23 11:08:54;;;;;;;34.80;25.95;;;;;;;5.53;75.51;101969.28;4951540;28;20137;-83
2021/12/23 11:43:13;;;;;;;36.33;25.38;;;;;;;5.18;76.76;101916.47;4929534;28;20513;-85
2021/12/23 11:45:21;;;;;;;29.05;24.00;;;;;;;5.47;76.57;101959.91;4968349;28;20129;-85
2021/12/23 11:47:48;;;;;;;36.55;26.30;;;;;;;5.06;76.40;101881.00;4951974;28;20086;-84
2021/12/23 11:50:19;;;;;;;31.50;22.77;;;;;;;4.79;76.44;101825.22;4968090;28;20082;-86
2021/12/23 11:52:47;;;;;;;34.95;24.90;;;;;;;5.41;76.08;101923.28;4950997;28;20350;-84
2021/12/23 11:55:15;;;;;;;31.77;24.48;;;;;;;5.31;75.42;101887.78;4950861;28;20082;-84
2021/12/23 11:57:43;;;;;;;31.98;22.98;;;;;;;4.82;75.35;101798.78;4950530;28;20166;-87
2021/12/23 12:03:02;;;;;;;31.02;23.45;;;;;;;5.42;74.26;101887.31;4967102;28;20050;-85
2021/12/23 12:05:29;;;;;;;33.63;25.17;;;;;;;5.40;74.41;101894.41;4968280;28;20414;-84
2021/12/23 12:08:15;;;;;;;33.08;24.20;;;;;;;5.55;74.66;101912.13;4971413;28;20550;-84
2021/12/23 12:10:47;;;;;;;30.98;24.55;;;;;;;5.21;74.93;101850.50;4972120;28;20050;-84
2021/12/23 12:13:17;;;;;;;30.90;23.60;;;;;;;4.92;74.61;101794.78;4969231;28;20172;-84
2021/12/23 12:15:50;;;;;;;34.10;26.30;;;;;;;3.76;74.51;101605.50;4968625;28;20058;-86
2021/12/23 12:18:23;;;;;;;32.40;24.75;;;;;;;4.04;73.48;101653.28;4968288;28;20062;-83
2021/12/23 12:20:59;;;;;;;34.85;27.15;;;;;;;4.25;73.91;101671.66;4968303;28;20403;-83
2021/12/23 12:23:30;;;;;;;33.60;24.85;;;;;;;5.61;74.01;101895.16;4968276;28;20474;-82
2021/12/23 12:26:03;;;;;;;34.90;26.00;;;;;;;4.54;74.21;101698.38;4965341;28;20051;-86
2021/12/23 12:28:43;;;;;;;37.85;25.48;;;;;;;4.76;74.15;101707.00;4952819;28;20310;-83
2021/12/23 12:31:22;;;;;;;34.80;25.75;;;;;;;5.85;73.85;101879.97;4969893;28;20062;-84
2021/12/23 12:34:12;;;;;;;39.05;26.65;;;;;;;4.00;73.15;101587.78;4952720;28;20514;-82